sensor_id;sensor_type;location;lat;lon;timestamp;P1;durP1;ratioP1;P2;durP2;ratioP2
286;SDS011;127;48.770;9.212;2022-08-01T00:01:35;5.40;;;3.60;;
286;SDS011;127;48.770;9.212;2022-08-01T00:04:06;2.67;;;2.53;;
286;SDS011;127;48.770;9.212;2022-08-01T00:06:35;4.03;;;3.10;;
286;SDS011;127;48.770;9.212;2022-08-01T00:09:03;4.17;;;2.77;;
286;SDS011;127;48.770;9.212;2022-08-01T00:11:32;7.33;;;3.50;;
286;SDS011;127;48.770;9.212;2022-08-01T00:14:01;5.20;;;3.13;;
286;SDS011;127;48.770;9.212;2022-08-01T00:16:33;3.40;;;2.70;;
286;SDS011;127;48.770;9.212;2022-08-01T00:19:01;3.30;;;2.93;;
286;SDS011;127;48.770;9.212;2022-08-01T00:21:38;6.80;;;3.20;;
286;SDS011;127;48.770;9.212;2022-08-01T00:24:06;4.93;;;3.20;;
286;SDS011;127;48.770;9.212;2022-08-01T00:26:35;4.87;;;3.10;;
286;SDS011;127;48.770;9.212;2022-08-01T00:29:04;4.40;;;3.33;;
286;SDS011;127;48.770;9.212;2022-08-01T00:31:35;6.27;;;3.20;;
286;SDS011;127;48.770;9.212;2022-08-01T00:34:07;3.87;;;3.10;;
286;SDS011;127;48.770;9.212;2022-08-01T00:36:36;6.00;;;3.60;;
286;SDS011;127;48.770;9.212;2022-08-01T00:39:05;3.40;;;3.10;;
286;SDS011;127;48.770;9.212;2022-08-01T00:41:34;6.90;;;3.30;;
286;SDS011;127;48.770;9.212;2022-08-01T00:44:07;8.13;;;3.20;;
286;SDS011;127;48.770;9.212;2022-08-01T00:46:38;5.17;;;3.10;;
286;SDS011;127;48.770;9.212;2022-08-01T00:49:07;4.53;;;3.20;;
286;SDS011;127;48.770;9.212;2022-08-01T00:51:36;4.40;;;3.30;;
286;SDS011;127;48.770;9.212;2022-08-01T00:54:06;6.10;;;2.97;;
286;SDS011;127;48.770;9.212;2022-08-01T00:56:34;4.40;;;3.30;;
286;SDS011;127;48.770;9.212;2022-08-01T00:59:03;4.57;;;3.13;;
286;SDS011;127;48.770;9.212;2022-08-01T01:01:33;5.50;;;3.63;;
286;SDS011;127;48.770;9.212;2022-08-01T01:04:15;3.30;;;2.93;;
286;SDS011;127;48.770;9.212;2022-08-01T01:06:45;6.73;;;2.90;;
286;SDS011;127;48.770;9.212;2022-08-01T01:09:24;7.00;;;3.70;;
286;SDS011;127;48.770;9.212;2022-08-01T01:12:03;4.70;;;3.40;;
286;SDS011;127;48.770;9.212;2022-08-01T01:14:41;7.40;;;3.43;;
286;SDS011;127;48.770;9.212;2022-08-01T01:17:14;6.20;;;3.33;;
286;SDS011;127;48.770;9.212;2022-08-01T01:19:48;5.10;;;4.20;;
286;SDS011;127;48.770;9.212;2022-08-01T01:22:27;4.00;;;2.93;;
286;SDS011;127;48.770;9.212;2022-08-01T01:25:16;3.53;;;2.83;;
286;SDS011;127;48.770;9.212;2022-08-01T01:28:09;4.60;;;3.00;;
286;SDS011;127;48.770;9.212;2022-08-01T01:30:46;5.03;;;3.33;;
286;SDS011;127;48.770;9.212;2022-08-01T01:33:19;4.97;;;3.20;;
286;SDS011;127;48.770;9.212;2022-08-01T01:35:56;3.83;;;3.13;;
286;SDS011;127;48.770;9.212;2022-08-01T01:38:28;5.00;;;3.17;;
286;SDS011;127;48.770;9.212;2022-08-01T01:41:00;4.73;;;3.13;;
286;SDS011;127;48.770;9.212;2022-08-01T01:43:31;5.00;;;3.23;;
286;SDS011;127;48.770;9.212;2022-08-01T01:46:04;3.83;;;3.37;;
286;SDS011;127;48.770;9.212;2022-08-01T01:48:34;8.27;;;3.80;;
286;SDS011;127;48.770;9.212;2022-08-01T01:51:21;5.47;;;3.60;;
286;SDS011;127;48.770;9.212;2022-08-01T01:53:54;3.83;;;3.37;;
286;SDS011;127;48.770;9.212;2022-08-01T01:56:26;5.07;;;3.07;;
286;SDS011;127;48.770;9.212;2022-08-01T01:58:57;5.53;;;3.40;;
286;SDS011;127;48.770;9.212;2022-08-01T02:01:31;5.57;;;3.60;;
286;SDS011;127;48.770;9.212;2022-08-01T02:04:02;7.43;;;3.60;;
286;SDS011;127;48.770;9.212;2022-08-01T02:06:31;5.60;;;3.77;;
286;SDS011;127;48.770;9.212;2022-08-01T02:09:02;6.20;;;3.77;;
286;SDS011;127;48.770;9.212;2022-08-01T02:11:31;5.50;;;3.80;;
286;SDS011;127;48.770;9.212;2022-08-01T02:14:01;6.13;;;3.83;;
286;SDS011;127;48.770;9.212;2022-08-01T02:16:36;6.40;;;3.90;;
286;SDS011;127;48.770;9.212;2022-08-01T02:19:07;6.80;;;4.37;;
286;SDS011;127;48.770;9.212;2022-08-01T02:21:40;5.23;;;3.37;;
286;SDS011;127;48.770;9.212;2022-08-01T02:24:17;10.30;;;4.07;;
286;SDS011;127;48.770;9.212;2022-08-01T02:26:54;5.07;;;3.57;;
286;SDS011;127;48.770;9.212;2022-08-01T02:29:29;6.70;;;3.90;;
286;SDS011;127;48.770;9.212;2022-08-01T02:32:06;4.10;;;3.00;;
286;SDS011;127;48.770;9.212;2022-08-01T02:34:41;5.10;;;3.63;;
286;SDS011;127;48.770;9.212;2022-08-01T02:37:18;5.10;;;3.70;;
286;SDS011;127;48.770;9.212;2022-08-01T02:39:54;3.50;;;2.97;;
286;SDS011;127;48.770;9.212;2022-08-01T02:42:25;3.90;;;3.03;;
286;SDS011;127;48.770;9.212;2022-08-01T02:44:56;4.90;;;3.63;;
286;SDS011;127;48.770;9.212;2022-08-01T02:47:27;6.10;;;4.10;;
286;SDS011;127;48.770;9.212;2022-08-01T02:49:58;4.30;;;3.70;;
286;SDS011;127;48.770;9.212;2022-08-01T02:52:31;7.20;;;3.97;;
286;SDS011;127;48.770;9.212;2022-08-01T02:55:05;7.40;;;3.33;;
286;SDS011;127;48.770;9.212;2022-08-01T02:57:35;4.50;;;3.30;;
286;SDS011;127;48.770;9.212;2022-08-01T03:00:06;5.43;;;3.20;;
286;SDS011;127;48.770;9.212;2022-08-01T03:02:42;6.17;;;3.30;;
286;SDS011;127;48.770;9.212;2022-08-01T03:05:13;6.93;;;3.77;;
286;SDS011;127;48.770;9.212;2022-08-01T03:07:43;5.70;;;3.13;;
286;SDS011;127;48.770;9.212;2022-08-01T03:10:12;5.67;;;4.00;;
286;SDS011;127;48.770;9.212;2022-08-01T03:12:45;3.43;;;3.10;;
286;SDS011;127;48.770;9.212;2022-08-01T03:15:18;6.97;;;4.03;;
286;SDS011;127;48.770;9.212;2022-08-01T03:17:52;5.40;;;3.50;;
286;SDS011;127;48.770;9.212;2022-08-01T03:20:23;7.20;;;3.70;;
286;SDS011;127;48.770;9.212;2022-08-01T03:22:55;4.57;;;3.50;;
286;SDS011;127;48.770;9.212;2022-08-01T03:25:25;4.80;;;3.90;;
286;SDS011;127;48.770;9.212;2022-08-01T03:27:56;5.73;;;3.40;;
286;SDS011;127;48.770;9.212;2022-08-01T03:30:29;5.30;;;3.90;;
286;SDS011;127;48.770;9.212;2022-08-01T03:33:02;5.93;;;3.60;;
286;SDS011;127;48.770;9.212;2022-08-01T03:35:33;6.40;;;3.23;;
286;SDS011;127;48.770;9.212;2022-08-01T03:38:06;3.73;;;3.20;;
286;SDS011;127;48.770;9.212;2022-08-01T03:40:38;5.33;;;3.87;;
286;SDS011;127;48.770;9.212;2022-08-01T03:43:13;8.60;;;3.70;;
286;SDS011;127;48.770;9.212;2022-08-01T03:45:49;5.50;;;3.50;;
286;SDS011;127;48.770;9.212;2022-08-01T03:48:27;4.30;;;2.97;;
286;SDS011;127;48.770;9.212;2022-08-01T03:51:01;4.10;;;3.40;;
286;SDS011;127;48.770;9.212;2022-08-01T03:53:33;6.00;;;4.03;;
286;SDS011;127;48.770;9.212;2022-08-01T03:56:06;5.50;;;4.07;;
286;SDS011;127;48.770;9.212;2022-08-01T03:58:36;7.97;;;3.40;;
286;SDS011;127;48.770;9.212;2022-08-01T04:01:09;6.40;;;3.13;;
286;SDS011;127;48.770;9.212;2022-08-01T04:03:41;6.07;;;2.90;;
286;SDS011;127;48.770;9.212;2022-08-01T04:06:10;7.17;;;3.43;;
286;SDS011;127;48.770;9.212;2022-08-01T04:08:40;6.27;;;3.50;;
286;SDS011;127;48.770;9.212;2022-08-01T04:11:20;4.30;;;3.40;;
286;SDS011;127;48.770;9.212;2022-08-01T04:13:49;4.83;;;3.63;;
286;SDS011;127;48.770;9.212;2022-08-01T04:16:20;3.17;;;2.63;;
286;SDS011;127;48.770;9.212;2022-08-01T04:18:54;5.40;;;3.53;;
286;SDS011;127;48.770;9.212;2022-08-01T04:21:25;4.20;;;2.60;;
286;SDS011;127;48.770;9.212;2022-08-01T04:23:59;7.30;;;3.83;;
286;SDS011;127;48.770;9.212;2022-08-01T04:26:34;7.33;;;3.90;;
286;SDS011;127;48.770;9.212;2022-08-01T04:29:04;4.93;;;3.17;;
286;SDS011;127;48.770;9.212;2022-08-01T04:31:34;7.23;;;2.83;;
286;SDS011;127;48.770;9.212;2022-08-01T04:34:08;6.10;;;3.40;;
286;SDS011;127;48.770;9.212;2022-08-01T04:36:42;8.80;;;2.90;;
286;SDS011;127;48.770;9.212;2022-08-01T04:39:15;4.30;;;2.87;;
286;SDS011;127;48.770;9.212;2022-08-01T04:41:46;4.77;;;3.17;;
286;SDS011;127;48.770;9.212;2022-08-01T04:44:16;5.87;;;2.67;;
286;SDS011;127;48.770;9.212;2022-08-01T04:46:48;3.47;;;2.63;;
286;SDS011;127;48.770;9.212;2022-08-01T04:49:22;3.90;;;3.03;;
286;SDS011;127;48.770;9.212;2022-08-01T04:51:51;3.03;;;2.87;;
286;SDS011;127;48.770;9.212;2022-08-01T04:54:23;6.40;;;3.20;;
286;SDS011;127;48.770;9.212;2022-08-01T04:56:52;4.00;;;2.77;;
286;SDS011;127;48.770;9.212;2022-08-01T04:59:24;8.57;;;3.73;;
286;SDS011;127;48.770;9.212;2022-08-01T05:02:09;5.57;;;2.90;;
286;SDS011;127;48.770;9.212;2022-08-01T05:04:41;5.70;;;2.80;;
286;SDS011;127;48.770;9.212;2022-08-01T05:07:11;3.30;;;2.70;;
286;SDS011;127;48.770;9.212;2022-08-01T05:09:42;3.77;;;2.80;;
286;SDS011;127;48.770;9.212;2022-08-01T05:12:12;4.20;;;2.60;;
286;SDS011;127;48.770;9.212;2022-08-01T05:14:41;7.83;;;3.13;;
286;SDS011;127;48.770;9.212;2022-08-01T05:17:10;3.87;;;2.47;;
286;SDS011;127;48.770;9.212;2022-08-01T05:19:41;10.37;;;2.90;;
286;SDS011;127;48.770;9.212;2022-08-01T05:22:11;5.40;;;2.57;;
286;SDS011;127;48.770;9.212;2022-08-01T05:24:40;3.60;;;2.50;;
286;SDS011;127;48.770;9.212;2022-08-01T05:27:09;6.33;;;2.40;;
286;SDS011;127;48.770;9.212;2022-08-01T05:29:38;2.83;;;2.70;;
286;SDS011;127;48.770;9.212;2022-08-01T05:32:10;2.83;;;2.07;;
286;SDS011;127;48.770;9.212;2022-08-01T05:34:42;2.97;;;2.50;;
286;SDS011;127;48.770;9.212;2022-08-01T05:37:10;4.60;;;2.50;;
286;SDS011;127;48.770;9.212;2022-08-01T05:39:39;3.90;;;2.43;;
286;SDS011;127;48.770;9.212;2022-08-01T05:42:08;4.17;;;2.70;;
286;SDS011;127;48.770;9.212;2022-08-01T05:44:36;3.57;;;2.30;;
286;SDS011;127;48.770;9.212;2022-08-01T05:47:05;4.13;;;2.63;;
286;SDS011;127;48.770;9.212;2022-08-01T05:49:34;3.30;;;2.20;;
286;SDS011;127;48.770;9.212;2022-08-01T05:52:08;9.90;;;2.90;;
286;SDS011;127;48.770;9.212;2022-08-01T05:54:37;3.23;;;2.40;;
286;SDS011;127;48.770;9.212;2022-08-01T05:57:09;4.17;;;2.43;;
286;SDS011;127;48.770;9.212;2022-08-01T05:59:41;4.90;;;2.43;;
286;SDS011;127;48.770;9.212;2022-08-01T06:02:10;5.03;;;2.70;;
286;SDS011;127;48.770;9.212;2022-08-01T06:04:39;2.80;;;2.23;;
286;SDS011;127;48.770;9.212;2022-08-01T06:07:10;5.15;;;2.47;;
286;SDS011;127;48.770;9.212;2022-08-01T06:12:50;4.83;;;2.40;;
286;SDS011;127;48.770;9.212;2022-08-01T06:15:19;2.87;;;2.20;;
286;SDS011;127;48.770;9.212;2022-08-01T06:17:47;5.90;;;2.90;;
286;SDS011;127;48.770;9.212;2022-08-01T06:20:16;5.83;;;2.97;;
286;SDS011;127;48.770;9.212;2022-08-01T06:22:48;4.20;;;2.63;;
286;SDS011;127;48.770;9.212;2022-08-01T06:25:16;9.20;;;2.47;;
286;SDS011;127;48.770;9.212;2022-08-01T06:27:47;6.10;;;2.63;;
286;SDS011;127;48.770;9.212;2022-08-01T06:30:16;2.97;;;2.13;;
286;SDS011;127;48.770;9.212;2022-08-01T06:32:45;3.90;;;2.10;;
286;SDS011;127;48.770;9.212;2022-08-01T06:35:14;5.10;;;2.00;;
286;SDS011;127;48.770;9.212;2022-08-01T06:37:43;4.00;;;1.90;;
286;SDS011;127;48.770;9.212;2022-08-01T06:40:15;2.73;;;1.80;;
286;SDS011;127;48.770;9.212;2022-08-01T06:42:44;3.70;;;2.10;;
286;SDS011;127;48.770;9.212;2022-08-01T06:45:13;2.43;;;2.07;;
286;SDS011;127;48.770;9.212;2022-08-01T06:47:42;3.30;;;2.33;;
286;SDS011;127;48.770;9.212;2022-08-01T06:50:12;2.57;;;2.30;;
286;SDS011;127;48.770;9.212;2022-08-01T06:52:41;2.77;;;2.30;;
286;SDS011;127;48.770;9.212;2022-08-01T06:55:10;2.13;;;1.97;;
286;SDS011;127;48.770;9.212;2022-08-01T06:57:47;1.90;;;1.77;;
286;SDS011;127;48.770;9.212;2022-08-01T07:00:17;2.90;;;1.90;;
286;SDS011;127;48.770;9.212;2022-08-01T07:02:47;3.63;;;2.53;;
286;SDS011;127;48.770;9.212;2022-08-01T07:05:16;2.23;;;2.03;;
286;SDS011;127;48.770;9.212;2022-08-01T07:07:45;3.30;;;2.40;;
286;SDS011;127;48.770;9.212;2022-08-01T07:10:13;5.13;;;1.90;;
286;SDS011;127;48.770;9.212;2022-08-01T07:12:49;6.93;;;2.33;;
286;SDS011;127;48.770;9.212;2022-08-01T07:15:18;3.53;;;2.43;;
286;SDS011;127;48.770;9.212;2022-08-01T07:17:51;2.77;;;2.47;;
286;SDS011;127;48.770;9.212;2022-08-01T07:20:21;5.67;;;2.10;;
286;SDS011;127;48.770;9.212;2022-08-01T07:22:50;2.20;;;2.10;;
286;SDS011;127;48.770;9.212;2022-08-01T07:25:20;8.33;;;2.40;;
286;SDS011;127;48.770;9.212;2022-08-01T07:27:54;3.33;;;2.43;;
286;SDS011;127;48.770;9.212;2022-08-01T07:30:24;3.40;;;2.40;;
286;SDS011;127;48.770;9.212;2022-08-01T07:32:57;7.73;;;2.33;;
286;SDS011;127;48.770;9.212;2022-08-01T07:35:27;12.30;;;2.20;;
286;SDS011;127;48.770;9.212;2022-08-01T07:37:56;3.00;;;2.03;;
286;SDS011;127;48.770;9.212;2022-08-01T07:40:24;2.97;;;2.17;;
286;SDS011;127;48.770;9.212;2022-08-01T07:42:56;5.90;;;2.40;;
286;SDS011;127;48.770;9.212;2022-08-01T07:45:26;3.60;;;2.20;;
286;SDS011;127;48.770;9.212;2022-08-01T07:47:55;2.57;;;2.27;;
286;SDS011;127;48.770;9.212;2022-08-01T07:50:24;2.50;;;2.23;;
286;SDS011;127;48.770;9.212;2022-08-01T07:52:52;2.77;;;2.33;;
286;SDS011;127;48.770;9.212;2022-08-01T07:55:21;14.37;;;3.00;;
286;SDS011;127;48.770;9.212;2022-08-01T07:57:50;3.43;;;2.30;;
286;SDS011;127;48.770;9.212;2022-08-01T08:00:21;2.90;;;2.30;;
286;SDS011;127;48.770;9.212;2022-08-01T08:02:52;3.10;;;2.53;;
286;SDS011;127;48.770;9.212;2022-08-01T08:05:24;4.23;;;2.73;;
286;SDS011;127;48.770;9.212;2022-08-01T08:07:53;4.03;;;2.27;;
286;SDS011;127;48.770;9.212;2022-08-01T08:10:24;4.23;;;2.30;;
286;SDS011;127;48.770;9.212;2022-08-01T08:12:53;3.40;;;2.50;;
286;SDS011;127;48.770;9.212;2022-08-01T08:15:24;4.47;;;2.43;;
286;SDS011;127;48.770;9.212;2022-08-01T08:17:53;5.13;;;2.57;;
286;SDS011;127;48.770;9.212;2022-08-01T08:20:21;8.23;;;2.90;;
286;SDS011;127;48.770;9.212;2022-08-01T08:22:52;4.47;;;2.67;;
286;SDS011;127;48.770;9.212;2022-08-01T08:25:23;5.20;;;2.83;;
286;SDS011;127;48.770;9.212;2022-08-01T08:27:55;11.17;;;3.00;;
286;SDS011;127;48.770;9.212;2022-08-01T08:30:27;4.57;;;2.83;;
286;SDS011;127;48.770;9.212;2022-08-01T08:32:55;3.57;;;2.50;;
286;SDS011;127;48.770;9.212;2022-08-01T08:35:24;5.53;;;2.37;;
286;SDS011;127;48.770;9.212;2022-08-01T08:37:53;5.07;;;3.20;;
286;SDS011;127;48.770;9.212;2022-08-01T08:40:21;5.80;;;3.07;;
286;SDS011;127;48.770;9.212;2022-08-01T08:42:56;4.70;;;2.63;;
286;SDS011;127;48.770;9.212;2022-08-01T08:45:30;4.00;;;2.67;;
286;SDS011;127;48.770;9.212;2022-08-01T08:47:59;4.47;;;3.60;;
286;SDS011;127;48.770;9.212;2022-08-01T08:50:28;3.63;;;3.20;;
286;SDS011;127;48.770;9.212;2022-08-01T08:52:57;5.80;;;3.90;;
286;SDS011;127;48.770;9.212;2022-08-01T08:55:29;6.70;;;3.57;;
286;SDS011;127;48.770;9.212;2022-08-01T08:57:58;5.73;;;3.50;;
286;SDS011;127;48.770;9.212;2022-08-01T09:00:33;7.57;;;3.63;;
286;SDS011;127;48.770;9.212;2022-08-01T09:03:02;8.50;;;3.47;;
286;SDS011;127;48.770;9.212;2022-08-01T09:05:30;7.93;;;3.90;;
286;SDS011;127;48.770;9.212;2022-08-01T09:07:59;5.03;;;3.13;;
286;SDS011;127;48.770;9.212;2022-08-01T09:10:28;6.70;;;4.70;;
286;SDS011;127;48.770;9.212;2022-08-01T09:13:04;4.87;;;4.20;;
286;SDS011;127;48.770;9.212;2022-08-01T09:15:44;8.10;;;4.00;;
286;SDS011;127;48.770;9.212;2022-08-01T09:18:28;7.40;;;3.90;;
286;SDS011;127;48.770;9.212;2022-08-01T09:21:08;9.90;;;6.63;;
286;SDS011;127;48.770;9.212;2022-08-01T09:23:40;9.33;;;5.67;;
286;SDS011;127;48.770;9.212;2022-08-01T09:26:10;8.13;;;5.40;;
286;SDS011;127;48.770;9.212;2022-08-01T09:28:41;13.57;;;5.97;;
286;SDS011;127;48.770;9.212;2022-08-01T09:31:14;9.80;;;6.47;;
286;SDS011;127;48.770;9.212;2022-08-01T09:33:51;10.03;;;6.33;;
286;SDS011;127;48.770;9.212;2022-08-01T09:36:22;8.40;;;6.43;;
286;SDS011;127;48.770;9.212;2022-08-01T09:38:52;15.03;;;8.03;;
286;SDS011;127;48.770;9.212;2022-08-01T09:41:28;12.60;;;8.03;;
286;SDS011;127;48.770;9.212;2022-08-01T09:43:59;12.43;;;8.00;;
286;SDS011;127;48.770;9.212;2022-08-01T09:46:31;8.20;;;6.17;;
286;SDS011;127;48.770;9.212;2022-08-01T09:49:02;7.80;;;6.07;;
286;SDS011;127;48.770;9.212;2022-08-01T09:51:32;8.70;;;6.10;;
286;SDS011;127;48.770;9.212;2022-08-01T09:54:02;12.07;;;6.10;;
286;SDS011;127;48.770;9.212;2022-08-01T09:56:37;8.10;;;5.97;;
286;SDS011;127;48.770;9.212;2022-08-01T09:59:07;10.07;;;6.00;;
286;SDS011;127;48.770;9.212;2022-08-01T10:01:47;17.03;;;7.20;;
286;SDS011;127;48.770;9.212;2022-08-01T10:04:19;7.03;;;6.10;;
286;SDS011;127;48.770;9.212;2022-08-01T10:06:50;6.60;;;5.70;;
286;SDS011;127;48.770;9.212;2022-08-01T10:09:26;7.60;;;5.60;;
286;SDS011;127;48.770;9.212;2022-08-01T10:11:56;8.07;;;5.53;;
286;SDS011;127;48.770;9.212;2022-08-01T10:14:27;7.33;;;5.63;;
286;SDS011;127;48.770;9.212;2022-08-01T10:16:59;10.27;;;5.40;;
286;SDS011;127;48.770;9.212;2022-08-01T10:19:29;6.87;;;5.00;;
286;SDS011;127;48.770;9.212;2022-08-01T10:21:58;7.03;;;5.53;;
286;SDS011;127;48.770;9.212;2022-08-01T10:24:28;8.27;;;5.00;;
286;SDS011;127;48.770;9.212;2022-08-01T10:26:59;7.40;;;5.00;;
286;SDS011;127;48.770;9.212;2022-08-01T10:29:31;5.73;;;4.80;;
286;SDS011;127;48.770;9.212;2022-08-01T10:32:12;11.03;;;5.37;;
286;SDS011;127;48.770;9.212;2022-08-01T10:34:40;7.10;;;4.53;;
286;SDS011;127;48.770;9.212;2022-08-01T10:37:09;8.43;;;4.90;;
286;SDS011;127;48.770;9.212;2022-08-01T10:39:40;8.93;;;4.50;;
286;SDS011;127;48.770;9.212;2022-08-01T10:42:10;7.27;;;5.27;;
286;SDS011;127;48.770;9.212;2022-08-01T10:44:40;6.30;;;3.93;;
286;SDS011;127;48.770;9.212;2022-08-01T10:47:14;5.67;;;4.50;;
286;SDS011;127;48.770;9.212;2022-08-01T10:49:47;4.77;;;4.10;;
286;SDS011;127;48.770;9.212;2022-08-01T10:52:19;9.17;;;4.00;;
286;SDS011;127;48.770;9.212;2022-08-01T10:54:48;9.97;;;4.20;;
286;SDS011;127;48.770;9.212;2022-08-01T10:57:40;6.37;;;3.80;;
286;SDS011;127;48.770;9.212;2022-08-01T11:00:15;6.03;;;3.80;;
286;SDS011;127;48.770;9.212;2022-08-01T11:02:59;5.07;;;3.60;;
286;SDS011;127;48.770;9.212;2022-08-01T11:05:30;5.33;;;4.10;;
286;SDS011;127;48.770;9.212;2022-08-01T11:08:01;4.70;;;4.10;;
286;SDS011;127;48.770;9.212;2022-08-01T11:10:35;4.50;;;4.10;;
286;SDS011;127;48.770;9.212;2022-08-01T11:13:08;5.77;;;4.30;;
286;SDS011;127;48.770;9.212;2022-08-01T11:15:40;4.93;;;3.90;;
286;SDS011;127;48.770;9.212;2022-08-01T11:21:03;6.70;;;3.63;;
286;SDS011;127;48.770;9.212;2022-08-01T11:23:31;3.90;;;3.80;;
286;SDS011;127;48.770;9.212;2022-08-01T11:26:15;5.03;;;4.10;;
286;SDS011;127;48.770;9.212;2022-08-01T11:28:46;7.60;;;4.50;;
286;SDS011;127;48.770;9.212;2022-08-01T11:31:41;5.93;;;4.30;;
286;SDS011;127;48.770;9.212;2022-08-01T11:34:14;5.10;;;4.33;;
286;SDS011;127;48.770;9.212;2022-08-01T11:36:45;5.33;;;4.17;;
286;SDS011;127;48.770;9.212;2022-08-01T11:39:17;4.50;;;3.53;;
286;SDS011;127;48.770;9.212;2022-08-01T11:41:47;5.10;;;4.10;;
286;SDS011;127;48.770;9.212;2022-08-01T11:44:19;7.07;;;3.93;;
286;SDS011;127;48.770;9.212;2022-08-01T11:46:58;5.07;;;3.10;;
286;SDS011;127;48.770;9.212;2022-08-01T11:52:28;9.80;;;3.57;;
286;SDS011;127;48.770;9.212;2022-08-01T11:55:05;4.87;;;3.67;;
286;SDS011;127;48.770;9.212;2022-08-01T11:57:35;4.43;;;3.43;;
286;SDS011;127;48.770;9.212;2022-08-01T12:00:09;3.50;;;3.30;;
286;SDS011;127;48.770;9.212;2022-08-01T12:02:39;5.60;;;3.70;;
286;SDS011;127;48.770;9.212;2022-08-01T12:05:11;5.93;;;3.53;;
286;SDS011;127;48.770;9.212;2022-08-01T12:07:43;4.20;;;3.77;;
286;SDS011;127;48.770;9.212;2022-08-01T12:10:13;3.60;;;3.20;;
286;SDS011;127;48.770;9.212;2022-08-01T12:12:44;4.80;;;3.13;;
286;SDS011;127;48.770;9.212;2022-08-01T12:15:14;5.53;;;3.87;;
286;SDS011;127;48.770;9.212;2022-08-01T12:17:45;4.27;;;3.63;;
286;SDS011;127;48.770;9.212;2022-08-01T12:20:19;6.80;;;3.60;;
286;SDS011;127;48.770;9.212;2022-08-01T12:22:52;4.70;;;3.43;;
286;SDS011;127;48.770;9.212;2022-08-01T12:25:21;5.30;;;3.17;;
286;SDS011;127;48.770;9.212;2022-08-01T12:27:50;4.20;;;3.30;;
286;SDS011;127;48.770;9.212;2022-08-01T12:30:20;4.20;;;3.33;;
286;SDS011;127;48.770;9.212;2022-08-01T12:32:50;4.57;;;4.00;;
286;SDS011;127;48.770;9.212;2022-08-01T12:35:24;7.03;;;3.80;;
286;SDS011;127;48.770;9.212;2022-08-01T12:37:55;14.50;;;4.13;;
286;SDS011;127;48.770;9.212;2022-08-01T12:40:26;5.20;;;3.93;;
286;SDS011;127;48.770;9.212;2022-08-01T12:42:57;3.17;;;2.97;;
286;SDS011;127;48.770;9.212;2022-08-01T12:45:28;6.03;;;3.70;;
286;SDS011;127;48.770;9.212;2022-08-01T12:48:02;5.10;;;3.40;;
286;SDS011;127;48.770;9.212;2022-08-01T12:50:45;7.20;;;3.20;;
286;SDS011;127;48.770;9.212;2022-08-01T12:53:15;4.90;;;3.83;;
286;SDS011;127;48.770;9.212;2022-08-01T12:55:45;3.87;;;3.67;;
286;SDS011;127;48.770;9.212;2022-08-01T12:58:15;7.07;;;3.60;;
286;SDS011;127;48.770;9.212;2022-08-01T13:00:45;3.40;;;3.10;;
286;SDS011;127;48.770;9.212;2022-08-01T13:03:33;4.30;;;3.80;;
286;SDS011;127;48.770;9.212;2022-08-01T13:06:09;4.23;;;3.63;;
286;SDS011;127;48.770;9.212;2022-08-01T13:08:39;9.67;;;3.43;;
286;SDS011;127;48.770;9.212;2022-08-01T13:11:09;6.43;;;3.50;;
286;SDS011;127;48.770;9.212;2022-08-01T13:13:42;9.70;;;3.50;;
286;SDS011;127;48.770;9.212;2022-08-01T13:16:14;4.77;;;3.73;;
286;SDS011;127;48.770;9.212;2022-08-01T13:18:47;3.63;;;2.80;;
286;SDS011;127;48.770;9.212;2022-08-01T13:21:20;11.13;;;3.00;;
286;SDS011;127;48.770;9.212;2022-08-01T13:24:00;6.33;;;3.70;;
286;SDS011;127;48.770;9.212;2022-08-01T13:26:41;4.00;;;3.27;;
286;SDS011;127;48.770;9.212;2022-08-01T13:29:11;9.83;;;3.30;;
286;SDS011;127;48.770;9.212;2022-08-01T13:31:42;5.07;;;3.60;;
286;SDS011;127;48.770;9.212;2022-08-01T13:34:11;4.77;;;3.70;;
286;SDS011;127;48.770;9.212;2022-08-01T13:36:43;4.10;;;3.33;;
286;SDS011;127;48.770;9.212;2022-08-01T13:39:12;6.30;;;2.87;;
286;SDS011;127;48.770;9.212;2022-08-01T13:41:53;4.53;;;3.17;;
286;SDS011;127;48.770;9.212;2022-08-01T13:44:22;11.80;;;4.00;;
286;SDS011;127;48.770;9.212;2022-08-01T13:46:50;5.50;;;3.10;;
286;SDS011;127;48.770;9.212;2022-08-01T13:49:21;3.20;;;2.87;;
286;SDS011;127;48.770;9.212;2022-08-01T13:51:52;4.93;;;2.70;;
286;SDS011;127;48.770;9.212;2022-08-01T13:54:21;6.37;;;2.90;;
286;SDS011;127;48.770;9.212;2022-08-01T13:56:50;3.80;;;2.83;;
286;SDS011;127;48.770;9.212;2022-08-01T13:59:20;6.77;;;3.23;;
286;SDS011;127;48.770;9.212;2022-08-01T14:01:49;5.10;;;2.97;;
286;SDS011;127;48.770;9.212;2022-08-01T14:04:23;5.77;;;2.70;;
286;SDS011;127;48.770;9.212;2022-08-01T14:07:06;5.30;;;2.80;;
286;SDS011;127;48.770;9.212;2022-08-01T14:09:35;3.13;;;2.70;;
286;SDS011;127;48.770;9.212;2022-08-01T14:12:04;3.57;;;2.70;;
286;SDS011;127;48.770;9.212;2022-08-01T14:14:33;20.67;;;4.20;;
286;SDS011;127;48.770;9.212;2022-08-01T14:17:03;3.50;;;3.17;;
286;SDS011;127;48.770;9.212;2022-08-01T14:19:32;5.43;;;3.50;;
286;SDS011;127;48.770;9.212;2022-08-01T14:22:01;3.70;;;3.17;;
286;SDS011;127;48.770;9.212;2022-08-01T14:24:32;5.00;;;3.20;;
286;SDS011;127;48.770;9.212;2022-08-01T14:27:01;4.00;;;2.87;;
286;SDS011;127;48.770;9.212;2022-08-01T14:29:29;4.47;;;3.00;;
286;SDS011;127;48.770;9.212;2022-08-01T14:31:58;4.20;;;3.20;;
286;SDS011;127;48.770;9.212;2022-08-01T14:34:27;5.30;;;3.00;;
286;SDS011;127;48.770;9.212;2022-08-01T14:36:56;4.87;;;2.90;;
286;SDS011;127;48.770;9.212;2022-08-01T14:39:24;4.20;;;3.27;;
286;SDS011;127;48.770;9.212;2022-08-01T14:41:56;3.37;;;2.77;;
286;SDS011;127;48.770;9.212;2022-08-01T14:44:24;5.27;;;3.40;;
286;SDS011;127;48.770;9.212;2022-08-01T14:46:53;4.83;;;2.77;;
286;SDS011;127;48.770;9.212;2022-08-01T14:49:22;3.30;;;2.80;;
286;SDS011;127;48.770;9.212;2022-08-01T14:51:51;6.00;;;2.90;;
286;SDS011;127;48.770;9.212;2022-08-01T14:54:20;5.67;;;2.90;;
286;SDS011;127;48.770;9.212;2022-08-01T14:56:49;5.23;;;3.00;;
286;SDS011;127;48.770;9.212;2022-08-01T14:59:20;5.97;;;2.77;;
286;SDS011;127;48.770;9.212;2022-08-01T15:01:49;9.90;;;2.83;;
286;SDS011;127;48.770;9.212;2022-08-01T15:04:18;5.70;;;2.57;;
286;SDS011;127;48.770;9.212;2022-08-01T15:06:47;6.47;;;3.27;;
286;SDS011;127;48.770;9.212;2022-08-01T15:09:15;6.43;;;2.60;;
286;SDS011;127;48.770;9.212;2022-08-01T15:14:29;3.00;;;2.70;;
286;SDS011;127;48.770;9.212;2022-08-01T15:17:10;4.10;;;3.33;;
286;SDS011;127;48.770;9.212;2022-08-01T15:19:39;3.43;;;2.67;;
286;SDS011;127;48.770;9.212;2022-08-01T15:22:08;6.03;;;3.00;;
286;SDS011;127;48.770;9.212;2022-08-01T15:24:37;10.50;;;2.83;;
286;SDS011;127;48.770;9.212;2022-08-01T15:27:06;5.70;;;2.90;;
286;SDS011;127;48.770;9.212;2022-08-01T15:29:38;3.43;;;2.70;;
286;SDS011;127;48.770;9.212;2022-08-01T15:32:07;5.30;;;3.10;;
286;SDS011;127;48.770;9.212;2022-08-01T15:34:37;2.73;;;2.60;;
286;SDS011;127;48.770;9.212;2022-08-01T15:37:06;4.50;;;2.80;;
286;SDS011;127;48.770;9.212;2022-08-01T15:39:35;6.30;;;3.07;;
286;SDS011;127;48.770;9.212;2022-08-01T15:42:05;4.27;;;2.63;;
286;SDS011;127;48.770;9.212;2022-08-01T15:44:39;4.33;;;2.73;;
286;SDS011;127;48.770;9.212;2022-08-01T15:47:08;8.50;;;2.80;;
286;SDS011;127;48.770;9.212;2022-08-01T15:49:37;4.13;;;2.37;;
286;SDS011;127;48.770;9.212;2022-08-01T15:52:06;7.20;;;3.27;;
286;SDS011;127;48.770;9.212;2022-08-01T15:54:36;4.43;;;2.60;;
286;SDS011;127;48.770;9.212;2022-08-01T15:57:06;6.27;;;2.87;;
286;SDS011;127;48.770;9.212;2022-08-01T15:59:35;6.00;;;3.30;;
286;SDS011;127;48.770;9.212;2022-08-01T16:02:07;3.60;;;2.63;;
286;SDS011;127;48.770;9.212;2022-08-01T16:04:35;4.50;;;2.67;;
286;SDS011;127;48.770;9.212;2022-08-01T16:07:04;3.57;;;2.90;;
286;SDS011;127;48.770;9.212;2022-08-01T16:09:33;5.73;;;3.17;;
286;SDS011;127;48.770;9.212;2022-08-01T16:12:02;2.80;;;2.40;;
286;SDS011;127;48.770;9.212;2022-08-01T16:14:31;4.00;;;2.10;;
286;SDS011;127;48.770;9.212;2022-08-01T16:17:02;3.40;;;2.30;;
286;SDS011;127;48.770;9.212;2022-08-01T16:19:31;9.77;;;3.00;;
286;SDS011;127;48.770;9.212;2022-08-01T16:22:00;5.73;;;2.43;;
286;SDS011;127;48.770;9.212;2022-08-01T16:24:29;6.00;;;2.70;;